aviador You're here:

K2DP Decoded Metar

STUMPY POINT in NC, USA
Report Time2017-08-18 09:56:00
UTC Time2017-08-18 10:48:02
Flight Rules vfr VFR
Wind200° at 04 kt
W.Rank200° ranks 3
Current wind is below 200° avg. (7.9)
Visibility9999 m
Phenomena:N/A
Clouds:Few 100 Hf
Expected CloudBase > 800 ft AGL from Temp-Dew spread
CeilingNone
Temp26°C (ISA +11)
Dew Point24°C (89% RH)
QNH1014 hPa
Density Alt1,640 ft
Elevation10 ft
Report Wrong Elevation
Raw Report
METAR K2DP 180956Z AUTO 20004KT 10SM FEW100 26/24 A2994 RMK AO2 SLPNO
T02610244 $=

Extra information for K2DP:More info

Metar Taf Metar & Taf Last 4 Metars F.Rules Stats Wind Profile Meteogram Temp Stats Airport Information Weather charts Add Link Nearby VenuesMetar ALERT Operation Metar Decoded Social comments

AIRNAV info for K2DP